首页
METAR-TAF:

METAR-TAF

机场 :

Dease Lake, 不列颠哥伦比亚, 加拿大

纬度: 58-25-20N, 经度: 130-01-53W, 海拔: 803米

当前天气观测

该预报发布于30分钟前的19:00 UTC
风速5节,风向东转东北
温度 -11°C
湿度 92%
气压 1024 hPa
能見度: 14.5公里
天空无云

METAR: CYDL 181900Z AUTO 07005KT 9SM CLR M11/M12 A3023 RMK SLP287

时间: 11:30 (19:30 UTC)

预报

该预报发布于52分钟前的18:38 UTC
预报有效从18日的 19点(UTC)到 18日的 24点(UTC)
风速5节,风向东转东北
能見度: 10公里
散云层高于20000英尺
短暂存在
从 18日的 19点(UTC)到 18日的 21点(UTC)
能見度: 6.4公里
轻雾

TAF: CYDL 181838Z 1819/1824 07005KT P6SM SCT200 TEMPO 1819/1821 4SM BR RMK FCST BASED ON AUTO OBS. NXT FCST WILL BE ISSUED AT 191345Z

超过4000个机场的气象观测和天气预报(METAR&TAF报告)。

可查询的气象台以黄色和红色小点在地图上表示。

将鼠标移到小点上方,可查看气象台名称。

然后点击查看天气观测和预报。

如需切换地图:点击带黑十字的绿色按钮放大地图;点击带横线的绿色按钮缩小地图;或者点击绿色箭头查看邻近地区的地图。


METAR-TAF: